sensor_id;sensor_type;location;lat;lon;timestamp;temperature;humidity
2391;DHT22;22957;50.824;4.360;2023-07-31T00:02:02;19.30;99.90
2391;DHT22;22957;50.824;4.360;2023-07-31T00:04:27;19.30;99.90
2391;DHT22;22957;50.824;4.360;2023-07-31T00:06:53;19.20;99.90
2391;DHT22;22957;50.824;4.360;2023-07-31T00:09:18;19.10;99.90
2391;DHT22;22957;50.824;4.360;2023-07-31T00:11:44;19.60;99.90
2391;DHT22;22957;50.824;4.360;2023-07-31T00:14:09;19.60;99.90
2391;DHT22;22957;50.824;4.360;2023-07-31T00:16:35;19.40;99.90
2391;DHT22;22957;50.824;4.360;2023-07-31T00:19:01;19.20;99.90
2391;DHT22;22957;50.824;4.360;2023-07-31T00:21:26;19.20;99.90
2391;DHT22;22957;50.824;4.360;2023-07-31T00:23:52;19.20;99.90
2391;DHT22;22957;50.824;4.360;2023-07-31T00:26:17;19.10;99.90
2391;DHT22;22957;50.824;4.360;2023-07-31T00:28:43;19.20;99.90
2391;DHT22;22957;50.824;4.360;2023-07-31T00:31:08;19.20;99.90
2391;DHT22;22957;50.824;4.360;2023-07-31T00:33:34;19.20;99.90
2391;DHT22;22957;50.824;4.360;2023-07-31T00:36:00;18.90;99.90
2391;DHT22;22957;50.824;4.360;2023-07-31T00:38:26;19.10;99.90
2391;DHT22;22957;50.824;4.360;2023-07-31T00:40:51;19.30;99.90
2391;DHT22;22957;50.824;4.360;2023-07-31T00:43:17;19.00;99.90
2391;DHT22;22957;50.824;4.360;2023-07-31T00:45:42;19.00;99.90
2391;DHT22;22957;50.824;4.360;2023-07-31T00:48:08;19.10;99.90
2391;DHT22;22957;50.824;4.360;2023-07-31T00:50:35;19.30;99.90
2391;DHT22;22957;50.824;4.360;2023-07-31T00:53:00;19.20;99.90
2391;DHT22;22957;50.824;4.360;2023-07-31T00:55:26;19.30;99.90
2391;DHT22;22957;50.824;4.360;2023-07-31T00:57:52;19.20;99.90
2391;DHT22;22957;50.824;4.360;2023-07-31T01:00:18;19.30;99.90
2391;DHT22;22957;50.824;4.360;2023-07-31T01:02:44;19.30;99.90
2391;DHT22;22957;50.824;4.360;2023-07-31T01:05:10;19.40;99.90
2391;DHT22;22957;50.824;4.360;2023-07-31T01:07:47;19.10;99.90
2391;DHT22;22957;50.824;4.360;2023-07-31T01:10:30;19.20;99.90
2391;DHT22;22957;50.824;4.360;2023-07-31T01:13:00;19.30;99.90
2391;DHT22;22957;50.824;4.360;2023-07-31T01:15:27;19.40;99.90
2391;DHT22;22957;50.824;4.360;2023-07-31T01:17:52;19.40;99.90
2391;DHT22;22957;50.824;4.360;2023-07-31T01:20:21;19.20;99.90
2391;DHT22;22957;50.824;4.360;2023-07-31T01:23:02;19.50;99.90
2391;DHT22;22957;50.824;4.360;2023-07-31T01:28:25;19.30;99.90
2391;DHT22;22957;50.824;4.360;2023-07-31T01:30:55;18.80;99.90
2391;DHT22;22957;50.824;4.360;2023-07-31T01:33:24;19.20;99.90
2391;DHT22;22957;50.824;4.360;2023-07-31T01:35:49;19.30;99.90
2391;DHT22;22957;50.824;4.360;2023-07-31T01:38:15;19.40;99.90
2391;DHT22;22957;50.824;4.360;2023-07-31T01:40:51;19.40;99.90
2391;DHT22;22957;50.824;4.360;2023-07-31T01:43:17;19.30;99.90
2391;DHT22;22957;50.824;4.360;2023-07-31T01:45:42;19.50;99.90
2391;DHT22;22957;50.824;4.360;2023-07-31T01:48:08;19.50;99.90
2391;DHT22;22957;50.824;4.360;2023-07-31T01:50:33;19.10;99.90
2391;DHT22;22957;50.824;4.360;2023-07-31T01:52:59;19.20;99.90
2391;DHT22;22957;50.824;4.360;2023-07-31T01:55:24;19.30;99.90
2391;DHT22;22957;50.824;4.360;2023-07-31T01:57:50;19.10;99.90
2391;DHT22;22957;50.824;4.360;2023-07-31T02:00:15;19.30;99.90
2391;DHT22;22957;50.824;4.360;2023-07-31T02:02:41;19.30;99.90
2391;DHT22;22957;50.824;4.360;2023-07-31T02:05:06;19.60;99.90
2391;DHT22;22957;50.824;4.360;2023-07-31T02:07:32;19.50;99.90
2391;DHT22;22957;50.824;4.360;2023-07-31T02:09:57;19.10;99.90
2391;DHT22;22957;50.824;4.360;2023-07-31T02:12:23;19.20;99.90
2391;DHT22;22957;50.824;4.360;2023-07-31T02:14:49;19.30;99.90
2391;DHT22;22957;50.824;4.360;2023-07-31T02:17:14;19.10;99.90
2391;DHT22;22957;50.824;4.360;2023-07-31T02:19:40;19.40;99.90
2391;DHT22;22957;50.824;4.360;2023-07-31T02:22:05;19.20;99.90
2391;DHT22;22957;50.824;4.360;2023-07-31T02:24:31;19.10;99.90
2391;DHT22;22957;50.824;4.360;2023-07-31T02:26:57;19.30;99.90
2391;DHT22;22957;50.824;4.360;2023-07-31T02:29:22;19.10;99.90
2391;DHT22;22957;50.824;4.360;2023-07-31T02:31:48;19.40;99.90
2391;DHT22;22957;50.824;4.360;2023-07-31T02:34:14;19.50;99.90
2391;DHT22;22957;50.824;4.360;2023-07-31T02:36:39;18.90;99.90
2391;DHT22;22957;50.824;4.360;2023-07-31T02:39:05;19.10;99.90
2391;DHT22;22957;50.824;4.360;2023-07-31T02:41:30;18.90;99.90
2391;DHT22;22957;50.824;4.360;2023-07-31T02:43:56;19.10;99.90
2391;DHT22;22957;50.824;4.360;2023-07-31T02:46:21;19.20;99.90
2391;DHT22;22957;50.824;4.360;2023-07-31T02:48:50;19.30;99.90
2391;DHT22;22957;50.824;4.360;2023-07-31T02:51:15;19.50;99.90
2391;DHT22;22957;50.824;4.360;2023-07-31T02:53:40;19.10;99.90
2391;DHT22;22957;50.824;4.360;2023-07-31T02:56:06;19.30;99.90
2391;DHT22;22957;50.824;4.360;2023-07-31T02:58:32;19.30;99.90
2391;DHT22;22957;50.824;4.360;2023-07-31T03:00:58;19.40;99.90
2391;DHT22;22957;50.824;4.360;2023-07-31T03:03:24;19.20;99.90
2391;DHT22;22957;50.824;4.360;2023-07-31T03:05:49;19.10;99.90
2391;DHT22;22957;50.824;4.360;2023-07-31T03:08:15;19.10;99.90
2391;DHT22;22957;50.824;4.360;2023-07-31T03:10:41;19.20;99.90
2391;DHT22;22957;50.824;4.360;2023-07-31T03:13:06;19.30;99.90
2391;DHT22;22957;50.824;4.360;2023-07-31T03:15:32;19.00;99.90
2391;DHT22;22957;50.824;4.360;2023-07-31T03:17:57;19.20;99.90
2391;DHT22;22957;50.824;4.360;2023-07-31T03:20:23;19.00;99.90
2391;DHT22;22957;50.824;4.360;2023-07-31T03:22:49;18.80;99.90
2391;DHT22;22957;50.824;4.360;2023-07-31T03:25:14;19.10;99.90
2391;DHT22;22957;50.824;4.360;2023-07-31T03:27:40;18.90;99.90
2391;DHT22;22957;50.824;4.360;2023-07-31T03:30:06;19.00;99.90
2391;DHT22;22957;50.824;4.360;2023-07-31T03:32:31;19.10;99.90
2391;DHT22;22957;50.824;4.360;2023-07-31T03:34:58;19.00;99.90
2391;DHT22;22957;50.824;4.360;2023-07-31T03:37:23;18.70;99.90
2391;DHT22;22957;50.824;4.360;2023-07-31T03:39:49;18.90;99.90
2391;DHT22;22957;50.824;4.360;2023-07-31T03:42:14;19.20;99.90
2391;DHT22;22957;50.824;4.360;2023-07-31T03:44:40;19.00;99.90
2391;DHT22;22957;50.824;4.360;2023-07-31T03:47:05;18.90;99.90
2391;DHT22;22957;50.824;4.360;2023-07-31T03:49:31;18.90;99.90
2391;DHT22;22957;50.824;4.360;2023-07-31T03:51:57;19.00;99.90
2391;DHT22;22957;50.824;4.360;2023-07-31T03:54:22;18.90;99.90
2391;DHT22;22957;50.824;4.360;2023-07-31T03:56:48;18.90;99.90
2391;DHT22;22957;50.824;4.360;2023-07-31T03:59:13;18.90;99.90
2391;DHT22;22957;50.824;4.360;2023-07-31T04:01:39;18.80;99.90
2391;DHT22;22957;50.824;4.360;2023-07-31T04:04:04;18.50;99.90
2391;DHT22;22957;50.824;4.360;2023-07-31T04:06:30;18.70;99.90
2391;DHT22;22957;50.824;4.360;2023-07-31T04:08:56;18.90;99.90
2391;DHT22;22957;50.824;4.360;2023-07-31T04:11:21;18.80;99.90
2391;DHT22;22957;50.824;4.360;2023-07-31T04:13:47;18.50;99.90
2391;DHT22;22957;50.824;4.360;2023-07-31T04:16:13;18.50;99.90
2391;DHT22;22957;50.824;4.360;2023-07-31T04:18:38;18.60;99.90
2391;DHT22;22957;50.824;4.360;2023-07-31T04:21:04;18.70;99.90
2391;DHT22;22957;50.824;4.360;2023-07-31T04:23:29;18.50;99.90
2391;DHT22;22957;50.824;4.360;2023-07-31T04:25:55;18.60;99.90
2391;DHT22;22957;50.824;4.360;2023-07-31T04:28:21;18.80;99.90
2391;DHT22;22957;50.824;4.360;2023-07-31T04:30:47;18.70;99.90
2391;DHT22;22957;50.824;4.360;2023-07-31T04:33:12;18.60;99.90
2391;DHT22;22957;50.824;4.360;2023-07-31T04:35:38;18.80;99.90
2391;DHT22;22957;50.824;4.360;2023-07-31T04:38:04;18.70;99.90
2391;DHT22;22957;50.824;4.360;2023-07-31T04:40:29;18.80;99.90
2391;DHT22;22957;50.824;4.360;2023-07-31T04:42:55;19.20;99.90
2391;DHT22;22957;50.824;4.360;2023-07-31T04:45:20;18.90;99.90
2391;DHT22;22957;50.824;4.360;2023-07-31T04:47:46;18.90;99.90
2391;DHT22;22957;50.824;4.360;2023-07-31T04:50:11;18.70;99.90
2391;DHT22;22957;50.824;4.360;2023-07-31T04:52:37;19.00;99.90
2391;DHT22;22957;50.824;4.360;2023-07-31T04:55:03;19.00;99.90
2391;DHT22;22957;50.824;4.360;2023-07-31T04:57:28;18.80;99.90
2391;DHT22;22957;50.824;4.360;2023-07-31T04:59:54;19.00;99.90
2391;DHT22;22957;50.824;4.360;2023-07-31T05:02:19;18.90;99.90
2391;DHT22;22957;50.824;4.360;2023-07-31T05:04:45;19.00;99.90
2391;DHT22;22957;50.824;4.360;2023-07-31T05:07:10;19.00;99.90
2391;DHT22;22957;50.824;4.360;2023-07-31T05:09:36;18.60;99.90
2391;DHT22;22957;50.824;4.360;2023-07-31T05:12:03;18.60;99.90
2391;DHT22;22957;50.824;4.360;2023-07-31T05:14:29;18.50;99.90
2391;DHT22;22957;50.824;4.360;2023-07-31T05:16:55;18.40;99.90
2391;DHT22;22957;50.824;4.360;2023-07-31T05:19:20;18.40;99.90
2391;DHT22;22957;50.824;4.360;2023-07-31T05:21:46;18.30;99.90
2391;DHT22;22957;50.824;4.360;2023-07-31T05:24:11;18.30;99.90
2391;DHT22;22957;50.824;4.360;2023-07-31T05:26:37;18.30;99.90
2391;DHT22;22957;50.824;4.360;2023-07-31T05:29:03;18.30;99.90
2391;DHT22;22957;50.824;4.360;2023-07-31T05:31:29;18.20;99.90
2391;DHT22;22957;50.824;4.360;2023-07-31T05:33:54;18.40;99.90
2391;DHT22;22957;50.824;4.360;2023-07-31T05:36:20;18.50;99.90
2391;DHT22;22957;50.824;4.360;2023-07-31T05:38:45;18.30;99.90
2391;DHT22;22957;50.824;4.360;2023-07-31T05:41:12;18.20;99.90
2391;DHT22;22957;50.824;4.360;2023-07-31T05:43:37;18.30;99.90
2391;DHT22;22957;50.824;4.360;2023-07-31T05:46:03;18.30;99.90
2391;DHT22;22957;50.824;4.360;2023-07-31T05:48:29;18.10;99.90
2391;DHT22;22957;50.824;4.360;2023-07-31T05:50:54;17.90;99.90
2391;DHT22;22957;50.824;4.360;2023-07-31T05:53:20;18.10;99.90
2391;DHT22;22957;50.824;4.360;2023-07-31T05:55:45;18.00;99.90
2391;DHT22;22957;50.824;4.360;2023-07-31T05:58:11;17.90;99.90
2391;DHT22;22957;50.824;4.360;2023-07-31T06:00:36;18.00;99.90
2391;DHT22;22957;50.824;4.360;2023-07-31T06:03:02;18.20;99.90
2391;DHT22;22957;50.824;4.360;2023-07-31T06:05:28;18.30;99.90
2391;DHT22;22957;50.824;4.360;2023-07-31T06:07:55;18.40;99.90
2391;DHT22;22957;50.824;4.360;2023-07-31T06:10:21;18.50;99.90
2391;DHT22;22957;50.824;4.360;2023-07-31T06:12:46;18.60;99.90
2391;DHT22;22957;50.824;4.360;2023-07-31T06:15:12;18.60;99.90
2391;DHT22;22957;50.824;4.360;2023-07-31T06:17:37;18.60;99.90
2391;DHT22;22957;50.824;4.360;2023-07-31T06:20:03;18.60;99.90
2391;DHT22;22957;50.824;4.360;2023-07-31T06:22:32;18.60;99.90
2391;DHT22;22957;50.824;4.360;2023-07-31T06:24:58;18.60;99.90
2391;DHT22;22957;50.824;4.360;2023-07-31T06:27:23;18.80;99.90
2391;DHT22;22957;50.824;4.360;2023-07-31T06:29:49;18.60;99.90
2391;DHT22;22957;50.824;4.360;2023-07-31T06:32:15;18.60;99.90
2391;DHT22;22957;50.824;4.360;2023-07-31T06:34:40;18.90;99.90
2391;DHT22;22957;50.824;4.360;2023-07-31T06:37:06;18.80;99.90
2391;DHT22;22957;50.824;4.360;2023-07-31T06:39:31;18.90;99.90
2391;DHT22;22957;50.824;4.360;2023-07-31T06:41:57;19.00;99.90
2391;DHT22;22957;50.824;4.360;2023-07-31T06:44:22;18.80;99.90
2391;DHT22;22957;50.824;4.360;2023-07-31T06:46:48;18.80;99.90
2391;DHT22;22957;50.824;4.360;2023-07-31T06:49:13;18.90;99.90
2391;DHT22;22957;50.824;4.360;2023-07-31T06:51:40;18.50;99.90
2391;DHT22;22957;50.824;4.360;2023-07-31T06:54:07;18.90;99.90
2391;DHT22;22957;50.824;4.360;2023-07-31T06:56:33;18.80;99.90
2391;DHT22;22957;50.824;4.360;2023-07-31T06:58:58;19.20;99.90
2391;DHT22;22957;50.824;4.360;2023-07-31T07:01:24;19.20;99.90
2391;DHT22;22957;50.824;4.360;2023-07-31T07:03:50;19.30;99.90
2391;DHT22;22957;50.824;4.360;2023-07-31T07:06:19;19.50;99.90
2391;DHT22;22957;50.824;4.360;2023-07-31T07:08:45;19.30;99.90
2391;DHT22;22957;50.824;4.360;2023-07-31T07:11:10;19.40;99.90
2391;DHT22;22957;50.824;4.360;2023-07-31T07:13:36;19.30;99.90
2391;DHT22;22957;50.824;4.360;2023-07-31T07:16:01;19.40;99.90
2391;DHT22;22957;50.824;4.360;2023-07-31T07:18:27;19.50;99.90
2391;DHT22;22957;50.824;4.360;2023-07-31T07:20:53;19.40;99.90
2391;DHT22;22957;50.824;4.360;2023-07-31T07:23:20;19.70;99.90
2391;DHT22;22957;50.824;4.360;2023-07-31T07:25:47;19.80;99.90
2391;DHT22;22957;50.824;4.360;2023-07-31T07:28:13;20.00;99.90
2391;DHT22;22957;50.824;4.360;2023-07-31T07:30:39;19.70;99.90
2391;DHT22;22957;50.824;4.360;2023-07-31T07:33:05;19.70;99.90
2391;DHT22;22957;50.824;4.360;2023-07-31T07:35:32;20.00;99.90
2391;DHT22;22957;50.824;4.360;2023-07-31T07:37:58;19.50;99.90
2391;DHT22;22957;50.824;4.360;2023-07-31T07:40:23;19.40;99.90
2391;DHT22;22957;50.824;4.360;2023-07-31T07:42:49;19.40;99.90
2391;DHT22;22957;50.824;4.360;2023-07-31T07:45:15;19.80;99.90
2391;DHT22;22957;50.824;4.360;2023-07-31T07:47:41;19.80;99.90
2391;DHT22;22957;50.824;4.360;2023-07-31T07:50:07;19.90;99.90
2391;DHT22;22957;50.824;4.360;2023-07-31T07:52:33;20.10;99.90
2391;DHT22;22957;50.824;4.360;2023-07-31T07:54:59;20.30;99.90
2391;DHT22;22957;50.824;4.360;2023-07-31T07:57:25;20.10;99.90
2391;DHT22;22957;50.824;4.360;2023-07-31T07:59:51;19.70;99.90
2391;DHT22;22957;50.824;4.360;2023-07-31T08:02:16;19.80;99.90
2391;DHT22;22957;50.824;4.360;2023-07-31T08:04:42;19.90;99.90
2391;DHT22;22957;50.824;4.360;2023-07-31T08:07:08;20.00;99.90
2391;DHT22;22957;50.824;4.360;2023-07-31T08:09:35;19.70;99.90
2391;DHT22;22957;50.824;4.360;2023-07-31T08:12:01;19.60;99.90
2391;DHT22;22957;50.824;4.360;2023-07-31T08:14:28;19.40;99.90
2391;DHT22;22957;50.824;4.360;2023-07-31T08:16:54;19.30;99.90
2391;DHT22;22957;50.824;4.360;2023-07-31T08:19:19;19.60;99.90
2391;DHT22;22957;50.824;4.360;2023-07-31T08:21:45;19.90;99.90
2391;DHT22;22957;50.824;4.360;2023-07-31T08:24:10;19.90;99.90
2391;DHT22;22957;50.824;4.360;2023-07-31T08:26:36;19.80;99.90
2391;DHT22;22957;50.824;4.360;2023-07-31T08:29:01;20.00;99.90
2391;DHT22;22957;50.824;4.360;2023-07-31T08:31:27;19.90;99.90
2391;DHT22;22957;50.824;4.360;2023-07-31T08:33:54;20.00;99.90
2391;DHT22;22957;50.824;4.360;2023-07-31T08:36:20;19.90;99.90
2391;DHT22;22957;50.824;4.360;2023-07-31T08:38:45;19.80;99.90
2391;DHT22;22957;50.824;4.360;2023-07-31T08:41:11;19.60;99.90
2391;DHT22;22957;50.824;4.360;2023-07-31T08:43:39;19.40;99.90
2391;DHT22;22957;50.824;4.360;2023-07-31T08:46:05;19.70;99.90
2391;DHT22;22957;50.824;4.360;2023-07-31T08:48:31;19.80;99.90
2391;DHT22;22957;50.824;4.360;2023-07-31T08:50:57;19.80;99.90
2391;DHT22;22957;50.824;4.360;2023-07-31T08:53:23;19.80;99.90
2391;DHT22;22957;50.824;4.360;2023-07-31T08:55:49;19.90;99.90
2391;DHT22;22957;50.824;4.360;2023-07-31T08:58:15;20.10;99.90
2391;DHT22;22957;50.824;4.360;2023-07-31T09:00:42;19.70;99.90
2391;DHT22;22957;50.824;4.360;2023-07-31T09:03:17;19.80;99.90
2391;DHT22;22957;50.824;4.360;2023-07-31T09:05:45;19.50;99.90
2391;DHT22;22957;50.824;4.360;2023-07-31T09:08:12;19.90;99.90
2391;DHT22;22957;50.824;4.360;2023-07-31T09:10:42;19.90;99.90
2391;DHT22;22957;50.824;4.360;2023-07-31T09:13:08;20.30;99.90
2391;DHT22;22957;50.824;4.360;2023-07-31T09:15:35;19.80;99.90
2391;DHT22;22957;50.824;4.360;2023-07-31T09:18:02;19.50;99.90
2391;DHT22;22957;50.824;4.360;2023-07-31T09:20:28;19.80;99.90
2391;DHT22;22957;50.824;4.360;2023-07-31T09:22:54;20.30;99.90
2391;DHT22;22957;50.824;4.360;2023-07-31T09:25:25;20.10;99.90
2391;DHT22;22957;50.824;4.360;2023-07-31T09:27:56;20.30;99.90
2391;DHT22;22957;50.824;4.360;2023-07-31T09:30:22;19.90;99.90
2391;DHT22;22957;50.824;4.360;2023-07-31T09:32:49;20.20;99.90
2391;DHT22;22957;50.824;4.360;2023-07-31T09:35:18;20.40;99.90
2391;DHT22;22957;50.824;4.360;2023-07-31T09:37:49;20.10;99.90
2391;DHT22;22957;50.824;4.360;2023-07-31T09:40:28;20.30;99.90
2391;DHT22;22957;50.824;4.360;2023-07-31T09:42:56;20.20;99.90
2391;DHT22;22957;50.824;4.360;2023-07-31T09:45:23;20.30;99.90
2391;DHT22;22957;50.824;4.360;2023-07-31T09:47:48;20.30;99.90
2391;DHT22;22957;50.824;4.360;2023-07-31T09:50:14;20.30;99.90
2391;DHT22;22957;50.824;4.360;2023-07-31T09:52:41;20.00;99.90
2391;DHT22;22957;50.824;4.360;2023-07-31T09:55:12;20.00;99.90
2391;DHT22;22957;50.824;4.360;2023-07-31T09:57:40;19.80;99.90
2391;DHT22;22957;50.824;4.360;2023-07-31T10:00:08;19.80;99.90
2391;DHT22;22957;50.824;4.360;2023-07-31T10:02:38;19.40;99.90
2391;DHT22;22957;50.824;4.360;2023-07-31T10:05:05;19.80;99.90
2391;DHT22;22957;50.824;4.360;2023-07-31T10:07:33;19.80;99.90
2391;DHT22;22957;50.824;4.360;2023-07-31T10:10:00;19.80;99.90
2391;DHT22;22957;50.824;4.360;2023-07-31T10:12:26;19.90;99.90
2391;DHT22;22957;50.824;4.360;2023-07-31T10:14:55;20.00;99.90
2391;DHT22;22957;50.824;4.360;2023-07-31T10:17:22;20.40;99.90
2391;DHT22;22957;50.824;4.360;2023-07-31T10:19:49;20.50;99.90
2391;DHT22;22957;50.824;4.360;2023-07-31T10:22:15;20.70;99.90
2391;DHT22;22957;50.824;4.360;2023-07-31T10:24:43;20.70;99.90
2391;DHT22;22957;50.824;4.360;2023-07-31T10:27:09;20.60;99.90
2391;DHT22;22957;50.824;4.360;2023-07-31T10:29:37;20.90;99.90
2391;DHT22;22957;50.824;4.360;2023-07-31T10:32:04;21.10;99.90
2391;DHT22;22957;50.824;4.360;2023-07-31T10:34:34;21.10;99.90
2391;DHT22;22957;50.824;4.360;2023-07-31T10:37:25;21.10;99.90
2391;DHT22;22957;50.824;4.360;2023-07-31T10:40:17;21.00;99.90
2391;DHT22;22957;50.824;4.360;2023-07-31T10:42:53;21.10;99.90
2391;DHT22;22957;50.824;4.360;2023-07-31T10:45:25;21.00;99.90
2391;DHT22;22957;50.824;4.360;2023-07-31T10:48:02;20.80;99.90
2391;DHT22;22957;50.824;4.360;2023-07-31T10:50:29;21.00;99.90
2391;DHT22;22957;50.824;4.360;2023-07-31T10:52:56;21.70;99.90
2391;DHT22;22957;50.824;4.360;2023-07-31T10:55:42;21.60;99.90
2391;DHT22;22957;50.824;4.360;2023-07-31T10:58:12;21.30;99.90
2391;DHT22;22957;50.824;4.360;2023-07-31T11:00:41;21.60;99.90
2391;DHT22;22957;50.824;4.360;2023-07-31T11:05:49;21.50;99.90
2391;DHT22;22957;50.824;4.360;2023-07-31T11:08:26;21.80;99.90
2391;DHT22;22957;50.824;4.360;2023-07-31T11:13:31;21.80;99.90
2391;DHT22;22957;50.824;4.360;2023-07-31T11:15:57;21.70;99.90
2391;DHT22;22957;50.824;4.360;2023-07-31T11:18:25;21.80;99.90
2391;DHT22;22957;50.824;4.360;2023-07-31T11:20:51;21.60;99.90
2391;DHT22;22957;50.824;4.360;2023-07-31T11:23:19;21.70;99.90
2391;DHT22;22957;50.824;4.360;2023-07-31T11:25:44;21.90;99.90
2391;DHT22;22957;50.824;4.360;2023-07-31T11:28:13;21.80;99.90
2391;DHT22;22957;50.824;4.360;2023-07-31T11:30:40;21.80;99.90
2391;DHT22;22957;50.824;4.360;2023-07-31T11:33:07;21.50;99.90
2391;DHT22;22957;50.824;4.360;2023-07-31T11:35:34;21.20;99.90
2391;DHT22;22957;50.824;4.360;2023-07-31T11:38:00;21.50;99.90
2391;DHT22;22957;50.824;4.360;2023-07-31T11:40:27;21.50;99.90
2391;DHT22;22957;50.824;4.360;2023-07-31T11:43:05;21.50;99.90
2391;DHT22;22957;50.824;4.360;2023-07-31T11:45:30;21.50;99.90
2391;DHT22;22957;50.824;4.360;2023-07-31T11:47:56;21.60;99.90
2391;DHT22;22957;50.824;4.360;2023-07-31T11:50:23;21.90;99.90
2391;DHT22;22957;50.824;4.360;2023-07-31T11:52:55;21.90;99.90
2391;DHT22;22957;50.824;4.360;2023-07-31T11:55:22;21.50;99.90
2391;DHT22;22957;50.824;4.360;2023-07-31T11:57:48;21.80;99.90
2391;DHT22;22957;50.824;4.360;2023-07-31T12:00:14;21.60;99.90
2391;DHT22;22957;50.824;4.360;2023-07-31T12:02:40;21.90;99.90
2391;DHT22;22957;50.824;4.360;2023-07-31T12:05:15;22.00;99.90
2391;DHT22;22957;50.824;4.360;2023-07-31T12:07:49;22.10;99.90
2391;DHT22;22957;50.824;4.360;2023-07-31T12:10:26;22.40;99.90
2391;DHT22;22957;50.824;4.360;2023-07-31T12:13:21;22.20;99.90
2391;DHT22;22957;50.824;4.360;2023-07-31T12:15:48;22.50;99.90
2391;DHT22;22957;50.824;4.360;2023-07-31T12:18:21;22.50;99.90
2391;DHT22;22957;50.824;4.360;2023-07-31T12:20:48;22.10;99.90
2391;DHT22;22957;50.824;4.360;2023-07-31T12:23:20;22.30;99.90
2391;DHT22;22957;50.824;4.360;2023-07-31T12:28:29;22.10;99.90
2391;DHT22;22957;50.824;4.360;2023-07-31T12:30:58;22.30;99.90
2391;DHT22;22957;50.824;4.360;2023-07-31T12:33:31;22.50;99.90
2391;DHT22;22957;50.824;4.360;2023-07-31T12:35:58;22.60;99.90
2391;DHT22;22957;50.824;4.360;2023-07-31T12:38:23;22.50;99.90
2391;DHT22;22957;50.824;4.360;2023-07-31T12:40:49;22.40;99.90
2391;DHT22;22957;50.824;4.360;2023-07-31T12:43:15;22.30;99.90
2391;DHT22;22957;50.824;4.360;2023-07-31T12:45:40;22.80;99.90
2391;DHT22;22957;50.824;4.360;2023-07-31T12:48:06;23.20;99.90
2391;DHT22;22957;50.824;4.360;2023-07-31T12:50:32;23.20;99.90
2391;DHT22;22957;50.824;4.360;2023-07-31T12:52:57;23.30;99.90
2391;DHT22;22957;50.824;4.360;2023-07-31T12:55:23;23.10;99.90
2391;DHT22;22957;50.824;4.360;2023-07-31T12:57:50;23.30;99.90
2391;DHT22;22957;50.824;4.360;2023-07-31T13:00:16;22.80;99.90
2391;DHT22;22957;50.824;4.360;2023-07-31T13:02:41;22.70;99.90
2391;DHT22;22957;50.824;4.360;2023-07-31T13:05:07;22.70;99.90
2391;DHT22;22957;50.824;4.360;2023-07-31T13:07:33;22.70;99.90
2391;DHT22;22957;50.824;4.360;2023-07-31T13:09:58;22.80;99.90
2391;DHT22;22957;50.824;4.360;2023-07-31T13:12:24;22.60;99.90
2391;DHT22;22957;50.824;4.360;2023-07-31T13:14:50;21.70;99.90
2391;DHT22;22957;50.824;4.360;2023-07-31T13:17:16;22.00;99.90
2391;DHT22;22957;50.824;4.360;2023-07-31T13:19:42;21.70;99.90
2391;DHT22;22957;50.824;4.360;2023-07-31T13:22:08;21.70;99.90
2391;DHT22;22957;50.824;4.360;2023-07-31T13:24:33;21.50;99.90
2391;DHT22;22957;50.824;4.360;2023-07-31T13:26:59;21.50;99.90
2391;DHT22;22957;50.824;4.360;2023-07-31T13:29:25;21.50;99.90
2391;DHT22;22957;50.824;4.360;2023-07-31T13:31:51;21.30;99.90
2391;DHT22;22957;50.824;4.360;2023-07-31T13:34:17;21.40;99.90
2391;DHT22;22957;50.824;4.360;2023-07-31T13:36:43;21.60;99.90
2391;DHT22;22957;50.824;4.360;2023-07-31T13:39:08;21.30;99.90
2391;DHT22;22957;50.824;4.360;2023-07-31T13:41:34;21.20;99.90
2391;DHT22;22957;50.824;4.360;2023-07-31T13:43:59;20.80;99.90
2391;DHT22;22957;50.824;4.360;2023-07-31T13:46:25;20.70;99.90
2391;DHT22;22957;50.824;4.360;2023-07-31T13:48:51;20.50;99.90
2391;DHT22;22957;50.824;4.360;2023-07-31T13:51:20;20.30;99.90
2391;DHT22;22957;50.824;4.360;2023-07-31T13:53:45;20.10;99.90
2391;DHT22;22957;50.824;4.360;2023-07-31T13:56:11;20.20;99.90
2391;DHT22;22957;50.824;4.360;2023-07-31T13:58:36;20.10;99.90
2391;DHT22;22957;50.824;4.360;2023-07-31T14:01:02;20.10;99.90
2391;DHT22;22957;50.824;4.360;2023-07-31T14:03:28;19.60;99.90
2391;DHT22;22957;50.824;4.360;2023-07-31T14:05:55;19.70;99.90
2391;DHT22;22957;50.824;4.360;2023-07-31T14:08:21;20.00;99.90
2391;DHT22;22957;50.824;4.360;2023-07-31T14:10:46;20.10;99.90
2391;DHT22;22957;50.824;4.360;2023-07-31T14:13:12;19.90;99.90
2391;DHT22;22957;50.824;4.360;2023-07-31T14:15:39;19.90;99.90
2391;DHT22;22957;50.824;4.360;2023-07-31T14:18:05;19.80;99.90
2391;DHT22;22957;50.824;4.360;2023-07-31T14:20:30;20.10;99.90
2391;DHT22;22957;50.824;4.360;2023-07-31T14:22:56;20.00;99.90
2391;DHT22;22957;50.824;4.360;2023-07-31T14:25:21;20.00;99.90
2391;DHT22;22957;50.824;4.360;2023-07-31T14:27:47;20.00;99.90
2391;DHT22;22957;50.824;4.360;2023-07-31T14:30:12;19.90;99.90
2391;DHT22;22957;50.824;4.360;2023-07-31T14:32:38;20.10;99.90
2391;DHT22;22957;50.824;4.360;2023-07-31T14:35:04;19.90;99.90
2391;DHT22;22957;50.824;4.360;2023-07-31T14:37:44;20.10;99.90
2391;DHT22;22957;50.824;4.360;2023-07-31T14:40:11;20.20;99.90
2391;DHT22;22957;50.824;4.360;2023-07-31T14:42:38;20.00;99.90
2391;DHT22;22957;50.824;4.360;2023-07-31T14:45:07;20.20;99.90
2391;DHT22;22957;50.824;4.360;2023-07-31T14:47:33;20.30;99.90
2391;DHT22;22957;50.824;4.360;2023-07-31T14:49:59;20.20;99.90
2391;DHT22;22957;50.824;4.360;2023-07-31T14:52:25;20.10;99.90
2391;DHT22;22957;50.824;4.360;2023-07-31T14:54:51;20.00;99.90
2391;DHT22;22957;50.824;4.360;2023-07-31T14:57:16;19.70;99.90
2391;DHT22;22957;50.824;4.360;2023-07-31T14:59:42;19.90;99.90
2391;DHT22;22957;50.824;4.360;2023-07-31T15:02:09;19.90;99.90
2391;DHT22;22957;50.824;4.360;2023-07-31T15:04:35;19.90;99.90
2391;DHT22;22957;50.824;4.360;2023-07-31T15:07:00;20.00;99.90
2391;DHT22;22957;50.824;4.360;2023-07-31T15:09:26;19.90;99.90
2391;DHT22;22957;50.824;4.360;2023-07-31T15:11:52;19.80;99.90
2391;DHT22;22957;50.824;4.360;2023-07-31T15:14:18;19.60;99.90
2391;DHT22;22957;50.824;4.360;2023-07-31T15:16:43;19.70;99.90
2391;DHT22;22957;50.824;4.360;2023-07-31T15:19:09;19.60;99.90
2391;DHT22;22957;50.824;4.360;2023-07-31T15:21:36;19.70;99.90
2391;DHT22;22957;50.824;4.360;2023-07-31T15:24:02;19.90;99.90
2391;DHT22;22957;50.824;4.360;2023-07-31T15:26:27;19.70;99.90
2391;DHT22;22957;50.824;4.360;2023-07-31T15:29:01;19.60;99.90
2391;DHT22;22957;50.824;4.360;2023-07-31T15:31:28;19.80;99.90
2391;DHT22;22957;50.824;4.360;2023-07-31T15:33:54;19.70;99.90
2391;DHT22;22957;50.824;4.360;2023-07-31T15:36:19;20.00;99.90
2391;DHT22;22957;50.824;4.360;2023-07-31T15:38:45;20.00;99.90
2391;DHT22;22957;50.824;4.360;2023-07-31T15:41:11;19.90;99.90
2391;DHT22;22957;50.824;4.360;2023-07-31T15:43:37;19.90;99.90
2391;DHT22;22957;50.824;4.360;2023-07-31T15:46:02;20.10;99.90
2391;DHT22;22957;50.824;4.360;2023-07-31T15:48:28;20.00;99.90
2391;DHT22;22957;50.824;4.360;2023-07-31T15:50:53;19.80;99.90
2391;DHT22;22957;50.824;4.360;2023-07-31T15:53:19;19.90;99.90